sensor_id;sensor_type;location;lat;lon;timestamp;temperature;humidity
46488;DHT22;32202;48.780;9.204;2023-02-28T00:02:14;0.00;62.90
46488;DHT22;32202;48.780;9.204;2023-02-28T00:04:42;0.00;62.70
46488;DHT22;32202;48.780;9.204;2023-02-28T00:07:08;0.00;63.00
46488;DHT22;32202;48.780;9.204;2023-02-28T00:09:33;0.00;63.10
46488;DHT22;32202;48.780;9.204;2023-02-28T00:11:59;0.00;63.20
46488;DHT22;32202;48.780;9.204;2023-02-28T00:14:24;-0.10;63.00
46488;DHT22;32202;48.780;9.204;2023-02-28T00:16:50;-0.10;63.40
46488;DHT22;32202;48.780;9.204;2023-02-28T00:19:15;-0.10;63.50
46488;DHT22;32202;48.780;9.204;2023-02-28T00:21:41;-0.10;63.50
46488;DHT22;32202;48.780;9.204;2023-02-28T00:24:06;-0.20;63.50
46488;DHT22;32202;48.780;9.204;2023-02-28T00:26:32;-0.20;63.70
46488;DHT22;32202;48.780;9.204;2023-02-28T00:28:57;-0.20;63.70
46488;DHT22;32202;48.780;9.204;2023-02-28T00:31:23;-0.20;63.90
46488;DHT22;32202;48.780;9.204;2023-02-28T00:33:48;-0.20;64.00
46488;DHT22;32202;48.780;9.204;2023-02-28T00:36:16;-0.20;64.10
46488;DHT22;32202;48.780;9.204;2023-02-28T00:38:41;-0.30;64.20
46488;DHT22;32202;48.780;9.204;2023-02-28T00:41:07;-0.20;65.00
46488;DHT22;32202;48.780;9.204;2023-02-28T00:43:33;-0.20;64.60
46488;DHT22;32202;48.780;9.204;2023-02-28T00:45:59;-0.30;64.70
46488;DHT22;32202;48.780;9.204;2023-02-28T00:48:24;-0.30;65.00
46488;DHT22;32202;48.780;9.204;2023-02-28T00:50:50;-0.30;65.40
46488;DHT22;32202;48.780;9.204;2023-02-28T00:53:15;-0.30;65.20
46488;DHT22;32202;48.780;9.204;2023-02-28T00:55:41;-0.30;65.30
46488;DHT22;32202;48.780;9.204;2023-02-28T00:58:06;-0.30;65.40
46488;DHT22;32202;48.780;9.204;2023-02-28T01:00:32;-0.30;65.60
46488;DHT22;32202;48.780;9.204;2023-02-28T01:02:57;-0.30;65.80
46488;DHT22;32202;48.780;9.204;2023-02-28T01:05:23;-0.40;65.90
46488;DHT22;32202;48.780;9.204;2023-02-28T01:07:49;-0.30;66.10
46488;DHT22;32202;48.780;9.204;2023-02-28T01:10:14;-0.30;66.30
46488;DHT22;32202;48.780;9.204;2023-02-28T01:12:40;-0.30;66.50
46488;DHT22;32202;48.780;9.204;2023-02-28T01:15:05;-0.40;66.50
46488;DHT22;32202;48.780;9.204;2023-02-28T01:17:31;-0.40;66.60
46488;DHT22;32202;48.780;9.204;2023-02-28T01:19:56;-0.40;67.00
46488;DHT22;32202;48.780;9.204;2023-02-28T01:22:22;-0.50;67.20
46488;DHT22;32202;48.780;9.204;2023-02-28T01:24:47;-0.40;67.40
46488;DHT22;32202;48.780;9.204;2023-02-28T01:27:13;-0.50;67.60
46488;DHT22;32202;48.780;9.204;2023-02-28T01:29:38;-0.40;67.70
46488;DHT22;32202;48.780;9.204;2023-02-28T01:32:04;-0.50;67.70
46488;DHT22;32202;48.780;9.204;2023-02-28T01:34:29;-0.50;68.00
46488;DHT22;32202;48.780;9.204;2023-02-28T01:36:55;-0.50;68.40
46488;DHT22;32202;48.780;9.204;2023-02-28T01:39:20;-0.50;68.70
46488;DHT22;32202;48.780;9.204;2023-02-28T01:41:46;-0.50;68.90
46488;DHT22;32202;48.780;9.204;2023-02-28T01:46:56;-0.40;68.80
46488;DHT22;32202;48.780;9.204;2023-02-28T01:49:22;-0.40;68.90
46488;DHT22;32202;48.780;9.204;2023-02-28T01:51:51;-0.40;69.00
46488;DHT22;32202;48.780;9.204;2023-02-28T01:54:21;-0.40;69.10
46488;DHT22;32202;48.780;9.204;2023-02-28T01:56:49;-0.40;69.40
46488;DHT22;32202;48.780;9.204;2023-02-28T01:59:20;-0.30;69.40
46488;DHT22;32202;48.780;9.204;2023-02-28T02:01:47;-0.30;69.50
46488;DHT22;32202;48.780;9.204;2023-02-28T02:04:12;-0.20;69.60
46488;DHT22;32202;48.780;9.204;2023-02-28T02:06:40;-0.20;69.50
46488;DHT22;32202;48.780;9.204;2023-02-28T02:09:07;-0.10;69.40
46488;DHT22;32202;48.780;9.204;2023-02-28T02:11:33;-0.10;69.50
46488;DHT22;32202;48.780;9.204;2023-02-28T02:24:58;0.00;70.20
46488;DHT22;32202;48.780;9.204;2023-02-28T02:32:46;0.00;70.50
46488;DHT22;32202;48.780;9.204;2023-02-28T02:35:20;-0.10;70.70
46488;DHT22;32202;48.780;9.204;2023-02-28T02:37:53;-0.10;70.90
46488;DHT22;32202;48.780;9.204;2023-02-28T02:40:25;0.00;71.10
46488;DHT22;32202;48.780;9.204;2023-02-28T02:43:03;0.00;71.00
46488;DHT22;32202;48.780;9.204;2023-02-28T02:45:39;0.00;71.30
46488;DHT22;32202;48.780;9.204;2023-02-28T02:48:09;0.00;71.40
46488;DHT22;32202;48.780;9.204;2023-02-28T02:50:38;0.00;71.70
46488;DHT22;32202;48.780;9.204;2023-02-28T02:53:06;0.10;71.80
46488;DHT22;32202;48.780;9.204;2023-02-28T02:55:33;0.10;71.90
46488;DHT22;32202;48.780;9.204;2023-02-28T02:58:01;0.10;71.80
46488;DHT22;32202;48.780;9.204;2023-02-28T03:00:30;0.10;71.80
46488;DHT22;32202;48.780;9.204;2023-02-28T03:02:56;0.20;72.00
46488;DHT22;32202;48.780;9.204;2023-02-28T03:05:55;0.10;72.20
46488;DHT22;32202;48.780;9.204;2023-02-28T03:08:14;0.10;72.50
46488;DHT22;32202;48.780;9.204;2023-02-28T03:10:43;0.20;72.50
46488;DHT22;32202;48.780;9.204;2023-02-28T03:21:12;0.20;73.10
46488;DHT22;32202;48.780;9.204;2023-02-28T03:26:14;0.10;73.70
46488;DHT22;32202;48.780;9.204;2023-02-28T03:31:15;0.20;74.00
46488;DHT22;32202;48.780;9.204;2023-02-28T03:33:43;0.20;74.20
46488;DHT22;32202;48.780;9.204;2023-02-28T03:36:11;0.20;74.10
46488;DHT22;32202;48.780;9.204;2023-02-28T03:38:38;0.20;74.30
46488;DHT22;32202;48.780;9.204;2023-02-28T03:41:08;0.20;74.50
46488;DHT22;32202;48.780;9.204;2023-02-28T03:43:35;0.20;74.60
46488;DHT22;32202;48.780;9.204;2023-02-28T03:46:04;0.20;74.70
46488;DHT22;32202;48.780;9.204;2023-02-28T03:48:32;0.20;74.80
46488;DHT22;32202;48.780;9.204;2023-02-28T03:51:00;0.30;75.40
46488;DHT22;32202;48.780;9.204;2023-02-28T03:55:56;0.40;75.60
46488;DHT22;32202;48.780;9.204;2023-02-28T04:00:55;0.40;75.60
46488;DHT22;32202;48.780;9.204;2023-02-28T04:03:22;0.40;75.60
46488;DHT22;32202;48.780;9.204;2023-02-28T04:05:50;0.50;76.20
46488;DHT22;32202;48.780;9.204;2023-02-28T04:08:16;0.50;75.70
46488;DHT22;32202;48.780;9.204;2023-02-28T04:10:41;0.50;75.10
46488;DHT22;32202;48.780;9.204;2023-02-28T04:13:08;0.50;75.20
46488;DHT22;32202;48.780;9.204;2023-02-28T04:15:34;0.50;75.60
46488;DHT22;32202;48.780;9.204;2023-02-28T04:17:59;0.50;75.30
46488;DHT22;32202;48.780;9.204;2023-02-28T04:20:25;0.50;75.20
46488;DHT22;32202;48.780;9.204;2023-02-28T04:22:50;0.60;75.40
46488;DHT22;32202;48.780;9.204;2023-02-28T04:25:16;0.60;75.40
46488;DHT22;32202;48.780;9.204;2023-02-28T04:27:41;0.60;75.30
46488;DHT22;32202;48.780;9.204;2023-02-28T04:30:10;0.60;75.00
46488;DHT22;32202;48.780;9.204;2023-02-28T04:32:35;0.60;75.70
46488;DHT22;32202;48.780;9.204;2023-02-28T04:35:01;0.70;75.60
46488;DHT22;32202;48.780;9.204;2023-02-28T04:37:27;0.70;75.30
46488;DHT22;32202;48.780;9.204;2023-02-28T04:39:54;0.70;75.20
46488;DHT22;32202;48.780;9.204;2023-02-28T04:42:19;0.80;75.00
46488;DHT22;32202;48.780;9.204;2023-02-28T04:44:45;0.80;75.40
46488;DHT22;32202;48.780;9.204;2023-02-28T04:47:10;0.80;74.80
46488;DHT22;32202;48.780;9.204;2023-02-28T04:49:36;0.80;75.20
46488;DHT22;32202;48.780;9.204;2023-02-28T04:52:01;0.80;75.20
46488;DHT22;32202;48.780;9.204;2023-02-28T04:54:27;0.80;74.70
46488;DHT22;32202;48.780;9.204;2023-02-28T04:56:53;0.80;75.40
46488;DHT22;32202;48.780;9.204;2023-02-28T04:59:19;0.80;75.10
46488;DHT22;32202;48.780;9.204;2023-02-28T05:01:46;0.80;75.40
46488;DHT22;32202;48.780;9.204;2023-02-28T05:04:11;0.80;75.10
46488;DHT22;32202;48.780;9.204;2023-02-28T05:06:37;0.70;75.40
46488;DHT22;32202;48.780;9.204;2023-02-28T05:09:02;0.80;75.40
46488;DHT22;32202;48.780;9.204;2023-02-28T05:11:29;0.70;75.40
46488;DHT22;32202;48.780;9.204;2023-02-28T05:13:58;0.70;75.60
46488;DHT22;32202;48.780;9.204;2023-02-28T05:16:24;0.70;75.60
46488;DHT22;32202;48.780;9.204;2023-02-28T05:18:49;0.80;75.80
46488;DHT22;32202;48.780;9.204;2023-02-28T05:21:21;0.80;75.80
46488;DHT22;32202;48.780;9.204;2023-02-28T05:23:49;0.80;76.30
46488;DHT22;32202;48.780;9.204;2023-02-28T05:26:14;0.80;75.80
46488;DHT22;32202;48.780;9.204;2023-02-28T05:28:39;0.80;76.00
46488;DHT22;32202;48.780;9.204;2023-02-28T05:31:05;0.80;75.90
46488;DHT22;32202;48.780;9.204;2023-02-28T05:33:30;0.80;76.10
46488;DHT22;32202;48.780;9.204;2023-02-28T05:35:56;0.80;76.00
46488;DHT22;32202;48.780;9.204;2023-02-28T05:38:21;0.80;76.30
46488;DHT22;32202;48.780;9.204;2023-02-28T05:40:47;0.80;76.30
46488;DHT22;32202;48.780;9.204;2023-02-28T05:43:13;0.80;76.20
46488;DHT22;32202;48.780;9.204;2023-02-28T05:45:38;0.80;76.50
46488;DHT22;32202;48.780;9.204;2023-02-28T05:48:04;0.80;76.40
46488;DHT22;32202;48.780;9.204;2023-02-28T05:50:29;0.80;76.60
46488;DHT22;32202;48.780;9.204;2023-02-28T05:52:55;0.80;77.00
46488;DHT22;32202;48.780;9.204;2023-02-28T05:55:20;0.80;76.80
46488;DHT22;32202;48.780;9.204;2023-02-28T05:57:46;0.80;77.10
46488;DHT22;32202;48.780;9.204;2023-02-28T06:00:11;0.80;77.00
46488;DHT22;32202;48.780;9.204;2023-02-28T06:02:38;0.80;76.90
46488;DHT22;32202;48.780;9.204;2023-02-28T06:05:03;0.90;76.90
46488;DHT22;32202;48.780;9.204;2023-02-28T06:07:29;0.80;77.10
46488;DHT22;32202;48.780;9.204;2023-02-28T06:09:54;0.80;77.20
46488;DHT22;32202;48.780;9.204;2023-02-28T06:12:20;0.80;77.20
46488;DHT22;32202;48.780;9.204;2023-02-28T06:14:45;0.80;77.20
46488;DHT22;32202;48.780;9.204;2023-02-28T06:17:11;0.90;77.10
46488;DHT22;32202;48.780;9.204;2023-02-28T06:19:37;0.90;77.20
46488;DHT22;32202;48.780;9.204;2023-02-28T06:22:04;0.90;77.70
46488;DHT22;32202;48.780;9.204;2023-02-28T06:24:29;0.90;77.50
46488;DHT22;32202;48.780;9.204;2023-02-28T06:26:56;0.90;77.40
46488;DHT22;32202;48.780;9.204;2023-02-28T06:29:24;0.90;77.50
46488;DHT22;32202;48.780;9.204;2023-02-28T06:31:49;0.90;77.60
46488;DHT22;32202;48.780;9.204;2023-02-28T06:34:15;1.00;77.60
46488;DHT22;32202;48.780;9.204;2023-02-28T06:36:41;1.00;77.60
46488;DHT22;32202;48.780;9.204;2023-02-28T06:39:07;1.00;77.10
46488;DHT22;32202;48.780;9.204;2023-02-28T06:41:33;1.00;76.70
46488;DHT22;32202;48.780;9.204;2023-02-28T06:44:09;1.00;77.00
46488;DHT22;32202;48.780;9.204;2023-02-28T06:46:36;1.10;76.70
46488;DHT22;32202;48.780;9.204;2023-02-28T06:49:03;1.10;76.80
46488;DHT22;32202;48.780;9.204;2023-02-28T06:51:29;1.10;76.40
46488;DHT22;32202;48.780;9.204;2023-02-28T06:53:54;1.10;76.10
46488;DHT22;32202;48.780;9.204;2023-02-28T06:56:19;1.10;75.90
46488;DHT22;32202;48.780;9.204;2023-02-28T06:58:46;1.20;75.90
46488;DHT22;32202;48.780;9.204;2023-02-28T07:01:13;1.20;76.00
46488;DHT22;32202;48.780;9.204;2023-02-28T07:03:38;1.20;75.80
46488;DHT22;32202;48.780;9.204;2023-02-28T07:06:04;1.30;75.50
46488;DHT22;32202;48.780;9.204;2023-02-28T07:08:30;1.30;75.10
46488;DHT22;32202;48.780;9.204;2023-02-28T07:10:56;1.30;75.00
46488;DHT22;32202;48.780;9.204;2023-02-28T07:13:22;1.40;74.20
46488;DHT22;32202;48.780;9.204;2023-02-28T07:15:55;1.30;73.80
46488;DHT22;32202;48.780;9.204;2023-02-28T07:18:20;1.40;74.00
46488;DHT22;32202;48.780;9.204;2023-02-28T07:20:46;1.40;74.00
46488;DHT22;32202;48.780;9.204;2023-02-28T07:23:11;1.30;72.80
46488;DHT22;32202;48.780;9.204;2023-02-28T07:25:37;1.20;72.20
46488;DHT22;32202;48.780;9.204;2023-02-28T07:28:02;1.00;72.90
46488;DHT22;32202;48.780;9.204;2023-02-28T07:30:28;1.10;73.10
46488;DHT22;32202;48.780;9.204;2023-02-28T07:32:53;1.10;72.90
46488;DHT22;32202;48.780;9.204;2023-02-28T07:35:21;1.20;72.90
46488;DHT22;32202;48.780;9.204;2023-02-28T07:37:47;1.30;72.20
46488;DHT22;32202;48.780;9.204;2023-02-28T07:40:12;1.40;71.80
46488;DHT22;32202;48.780;9.204;2023-02-28T07:42:39;1.40;71.50
46488;DHT22;32202;48.780;9.204;2023-02-28T07:45:05;1.20;71.90
46488;DHT22;32202;48.780;9.204;2023-02-28T07:47:31;1.20;71.80
46488;DHT22;32202;48.780;9.204;2023-02-28T07:49:57;1.20;71.80
46488;DHT22;32202;48.780;9.204;2023-02-28T07:52:23;1.30;71.70
46488;DHT22;32202;48.780;9.204;2023-02-28T07:54:49;1.30;71.80
46488;DHT22;32202;48.780;9.204;2023-02-28T07:57:14;1.40;71.20
46488;DHT22;32202;48.780;9.204;2023-02-28T07:59:40;1.50;70.80
46488;DHT22;32202;48.780;9.204;2023-02-28T08:02:05;1.60;70.70
46488;DHT22;32202;48.780;9.204;2023-02-28T08:04:31;1.60;70.00
46488;DHT22;32202;48.780;9.204;2023-02-28T08:06:57;1.40;69.80
46488;DHT22;32202;48.780;9.204;2023-02-28T08:09:22;1.10;70.80
46488;DHT22;32202;48.780;9.204;2023-02-28T08:11:48;1.30;70.90
46488;DHT22;32202;48.780;9.204;2023-02-28T08:14:13;1.40;70.60
46488;DHT22;32202;48.780;9.204;2023-02-28T08:16:39;1.40;70.00
46488;DHT22;32202;48.780;9.204;2023-02-28T08:19:04;1.50;70.40
46488;DHT22;32202;48.780;9.204;2023-02-28T08:21:30;1.60;69.80
46488;DHT22;32202;48.780;9.204;2023-02-28T08:23:55;1.70;69.50
46488;DHT22;32202;48.780;9.204;2023-02-28T08:26:22;1.50;69.70
46488;DHT22;32202;48.780;9.204;2023-02-28T08:28:47;1.50;69.90
46488;DHT22;32202;48.780;9.204;2023-02-28T08:31:13;1.60;69.60
46488;DHT22;32202;48.780;9.204;2023-02-28T08:33:40;1.70;69.20
46488;DHT22;32202;48.780;9.204;2023-02-28T08:36:06;1.90;68.60
46488;DHT22;32202;48.780;9.204;2023-02-28T08:38:32;1.90;68.20
46488;DHT22;32202;48.780;9.204;2023-02-28T08:40:58;1.90;68.30
46488;DHT22;32202;48.780;9.204;2023-02-28T08:43:24;2.00;68.10
46488;DHT22;32202;48.780;9.204;2023-02-28T08:45:53;2.10;67.70
46488;DHT22;32202;48.780;9.204;2023-02-28T08:48:19;2.10;67.20
46488;DHT22;32202;48.780;9.204;2023-02-28T08:50:54;2.10;67.40
46488;DHT22;32202;48.780;9.204;2023-02-28T08:53:19;2.20;67.40
46488;DHT22;32202;48.780;9.204;2023-02-28T08:55:45;2.20;67.40
46488;DHT22;32202;48.780;9.204;2023-02-28T08:58:10;2.10;67.00
46488;DHT22;32202;48.780;9.204;2023-02-28T09:00:35;1.80;67.50
46488;DHT22;32202;48.780;9.204;2023-02-28T09:03:01;1.90;68.20
46488;DHT22;32202;48.780;9.204;2023-02-28T09:05:27;2.00;68.00
46488;DHT22;32202;48.780;9.204;2023-02-28T09:07:54;2.20;67.60
46488;DHT22;32202;48.780;9.204;2023-02-28T09:10:19;2.30;66.90
46488;DHT22;32202;48.780;9.204;2023-02-28T09:12:45;2.30;66.40
46488;DHT22;32202;48.780;9.204;2023-02-28T09:15:12;2.40;66.40
46488;DHT22;32202;48.780;9.204;2023-02-28T09:17:37;2.40;65.90
46488;DHT22;32202;48.780;9.204;2023-02-28T09:20:03;2.50;66.20
46488;DHT22;32202;48.780;9.204;2023-02-28T09:22:29;2.60;66.10
46488;DHT22;32202;48.780;9.204;2023-02-28T09:24:55;2.70;65.60
46488;DHT22;32202;48.780;9.204;2023-02-28T09:27:20;2.60;65.10
46488;DHT22;32202;48.780;9.204;2023-02-28T09:29:46;2.70;65.40
46488;DHT22;32202;48.780;9.204;2023-02-28T09:32:11;2.70;64.60
46488;DHT22;32202;48.780;9.204;2023-02-28T09:34:37;2.80;64.70
46488;DHT22;32202;48.780;9.204;2023-02-28T09:37:02;3.00;64.70
46488;DHT22;32202;48.780;9.204;2023-02-28T09:39:28;3.20;63.50
46488;DHT22;32202;48.780;9.204;2023-02-28T09:41:54;3.40;63.80
46488;DHT22;32202;48.780;9.204;2023-02-28T09:46:50;3.70;62.20
46488;DHT22;32202;48.780;9.204;2023-02-28T09:49:19;3.70;61.50
46488;DHT22;32202;48.780;9.204;2023-02-28T09:51:51;3.60;61.60
46488;DHT22;32202;48.780;9.204;2023-02-28T09:54:20;3.40;61.90
46488;DHT22;32202;48.780;9.204;2023-02-28T09:56:48;3.40;61.80
46488;DHT22;32202;48.780;9.204;2023-02-28T10:07:07;3.60;61.70
46488;DHT22;32202;48.780;9.204;2023-02-28T10:09:43;3.70;61.40
46488;DHT22;32202;48.780;9.204;2023-02-28T10:12:10;3.60;61.10
46488;DHT22;32202;48.780;9.204;2023-02-28T10:14:37;3.50;61.60
46488;DHT22;32202;48.780;9.204;2023-02-28T10:17:12;3.60;61.60
46488;DHT22;32202;48.780;9.204;2023-02-28T10:19:43;3.50;61.70
46488;DHT22;32202;48.780;9.204;2023-02-28T10:24:48;3.70;61.10
46488;DHT22;32202;48.780;9.204;2023-02-28T10:29:40;4.30;59.80
46488;DHT22;32202;48.780;9.204;2023-02-28T10:32:08;4.50;58.90
46488;DHT22;32202;48.780;9.204;2023-02-28T10:34:36;4.70;58.20
46488;DHT22;32202;48.780;9.204;2023-02-28T10:37:01;4.90;57.70
46488;DHT22;32202;48.780;9.204;2023-02-28T10:42:01;5.20;56.90
46488;DHT22;32202;48.780;9.204;2023-02-28T10:44:27;5.40;56.20
46488;DHT22;32202;48.780;9.204;2023-02-28T10:46:52;5.60;55.70
46488;DHT22;32202;48.780;9.204;2023-02-28T10:49:25;5.70;55.10
46488;DHT22;32202;48.780;9.204;2023-02-28T10:51:52;5.60;55.40
46488;DHT22;32202;48.780;9.204;2023-02-28T10:54:20;5.60;55.00
46488;DHT22;32202;48.780;9.204;2023-02-28T10:57:04;5.40;55.90
46488;DHT22;32202;48.780;9.204;2023-02-28T10:59:33;5.70;55.70
46488;DHT22;32202;48.780;9.204;2023-02-28T11:01:59;5.80;55.00
46488;DHT22;32202;48.780;9.204;2023-02-28T11:09:44;7.30;52.90
46488;DHT22;32202;48.780;9.204;2023-02-28T11:14:49;12.90;42.50
46488;DHT22;32202;48.780;9.204;2023-02-28T11:17:19;15.90;38.30
46488;DHT22;32202;48.780;9.204;2023-02-28T11:19:45;16.80;35.70
46488;DHT22;32202;48.780;9.204;2023-02-28T11:22:15;18.00;35.00
46488;DHT22;32202;48.780;9.204;2023-02-28T11:24:43;18.20;34.10
46488;DHT22;32202;48.780;9.204;2023-02-28T11:29:54;19.70;32.60
46488;DHT22;32202;48.780;9.204;2023-02-28T11:32:20;19.80;31.10
46488;DHT22;32202;48.780;9.204;2023-02-28T11:34:46;19.50;31.60
46488;DHT22;32202;48.780;9.204;2023-02-28T11:37:13;18.50;32.70
46488;DHT22;32202;48.780;9.204;2023-02-28T11:39:39;18.00;33.20
46488;DHT22;32202;48.780;9.204;2023-02-28T11:42:27;17.10;34.30
46488;DHT22;32202;48.780;9.204;2023-02-28T11:47:36;15.40;35.80
46488;DHT22;32202;48.780;9.204;2023-02-28T11:53:05;17.50;33.40
46488;DHT22;32202;48.780;9.204;2023-02-28T11:55:38;17.70;34.30
46488;DHT22;32202;48.780;9.204;2023-02-28T12:05:45;16.30;34.30
46488;DHT22;32202;48.780;9.204;2023-02-28T12:10:53;14.10;37.80
46488;DHT22;32202;48.780;9.204;2023-02-28T12:13:24;15.60;35.60
46488;DHT22;32202;48.780;9.204;2023-02-28T12:26:47;17.20;34.30
46488;DHT22;32202;48.780;9.204;2023-02-28T12:29:16;18.80;32.20
46488;DHT22;32202;48.780;9.204;2023-02-28T12:31:49;17.50;32.50
46488;DHT22;32202;48.780;9.204;2023-02-28T12:34:21;17.00;34.20
46488;DHT22;32202;48.780;9.204;2023-02-28T12:36:48;19.00;32.30
46488;DHT22;32202;48.780;9.204;2023-02-28T12:39:24;19.30;31.30
46488;DHT22;32202;48.780;9.204;2023-02-28T12:41:53;19.20;31.20
46488;DHT22;32202;48.780;9.204;2023-02-28T12:47:04;20.50;30.00
46488;DHT22;32202;48.780;9.204;2023-02-28T12:49:32;22.00;29.30
46488;DHT22;32202;48.780;9.204;2023-02-28T12:51:59;21.80;29.30
46488;DHT22;32202;48.780;9.204;2023-02-28T12:54:31;20.90;30.00
46488;DHT22;32202;48.780;9.204;2023-02-28T13:01:56;22.50;28.80
46488;DHT22;32202;48.780;9.204;2023-02-28T13:09:19;21.20;29.80
46488;DHT22;32202;48.780;9.204;2023-02-28T13:11:45;21.50;29.40
46488;DHT22;32202;48.780;9.204;2023-02-28T13:14:35;22.00;29.10
46488;DHT22;32202;48.780;9.204;2023-02-28T13:17:03;21.50;29.10
46488;DHT22;32202;48.780;9.204;2023-02-28T13:22:15;22.60;29.00
46488;DHT22;32202;48.780;9.204;2023-02-28T13:24:43;22.20;29.20
46488;DHT22;32202;48.780;9.204;2023-02-28T13:27:11;23.80;28.60
46488;DHT22;32202;48.780;9.204;2023-02-28T13:29:38;23.90;28.30
46488;DHT22;32202;48.780;9.204;2023-02-28T13:34:33;24.70;28.10
46488;DHT22;32202;48.780;9.204;2023-02-28T13:47:39;23.00;28.30
46488;DHT22;32202;48.780;9.204;2023-02-28T13:58:24;22.30;29.00
46488;DHT22;32202;48.780;9.204;2023-02-28T14:00:59;22.70;28.90
46488;DHT22;32202;48.780;9.204;2023-02-28T14:03:31;22.20;28.70
46488;DHT22;32202;48.780;9.204;2023-02-28T14:08:55;20.00;30.10
46488;DHT22;32202;48.780;9.204;2023-02-28T14:11:40;19.90;30.30
46488;DHT22;32202;48.780;9.204;2023-02-28T14:14:08;19.40;30.60
46488;DHT22;32202;48.780;9.204;2023-02-28T14:16:39;19.10;31.20
46488;DHT22;32202;48.780;9.204;2023-02-28T14:19:09;18.60;31.20
46488;DHT22;32202;48.780;9.204;2023-02-28T14:21:37;18.10;31.80
46488;DHT22;32202;48.780;9.204;2023-02-28T14:29:47;18.30;32.20
46488;DHT22;32202;48.780;9.204;2023-02-28T14:32:15;18.70;32.30
46488;DHT22;32202;48.780;9.204;2023-02-28T14:34:48;19.10;31.30
46488;DHT22;32202;48.780;9.204;2023-02-28T14:37:26;19.70;31.00
46488;DHT22;32202;48.780;9.204;2023-02-28T14:39:52;19.90;30.60
46488;DHT22;32202;48.780;9.204;2023-02-28T14:42:28;19.60;30.70
46488;DHT22;32202;48.780;9.204;2023-02-28T14:44:55;19.00;30.90
46488;DHT22;32202;48.780;9.204;2023-02-28T14:47:21;18.60;31.30
46488;DHT22;32202;48.780;9.204;2023-02-28T14:49:48;17.90;32.30
46488;DHT22;32202;48.780;9.204;2023-02-28T14:52:15;17.70;32.30
46488;DHT22;32202;48.780;9.204;2023-02-28T14:54:42;17.60;32.60
46488;DHT22;32202;48.780;9.204;2023-02-28T14:57:20;17.60;32.70
46488;DHT22;32202;48.780;9.204;2023-02-28T14:59:46;17.10;32.70
46488;DHT22;32202;48.780;9.204;2023-02-28T15:02:15;17.00;33.50
46488;DHT22;32202;48.780;9.204;2023-02-28T15:04:41;16.90;33.40
46488;DHT22;32202;48.780;9.204;2023-02-28T15:07:14;16.40;34.20
46488;DHT22;32202;48.780;9.204;2023-02-28T15:09:39;15.90;34.90
46488;DHT22;32202;48.780;9.204;2023-02-28T15:12:05;16.00;34.80
46488;DHT22;32202;48.780;9.204;2023-02-28T15:14:31;16.10;34.50
46488;DHT22;32202;48.780;9.204;2023-02-28T15:17:01;15.90;35.10
46488;DHT22;32202;48.780;9.204;2023-02-28T15:19:31;15.40;35.20
46488;DHT22;32202;48.780;9.204;2023-02-28T15:22:02;14.80;36.00
46488;DHT22;32202;48.780;9.204;2023-02-28T15:27:03;14.30;36.70
46488;DHT22;32202;48.780;9.204;2023-02-28T15:29:29;13.90;37.60
46488;DHT22;32202;48.780;9.204;2023-02-28T15:32:00;13.20;38.30
46488;DHT22;32202;48.780;9.204;2023-02-28T15:34:36;13.20;39.00
46488;DHT22;32202;48.780;9.204;2023-02-28T15:37:06;13.10;39.00
46488;DHT22;32202;48.780;9.204;2023-02-28T15:39:32;13.20;38.70
46488;DHT22;32202;48.780;9.204;2023-02-28T15:42:18;13.10;39.20
46488;DHT22;32202;48.780;9.204;2023-02-28T15:44:44;12.90;39.20
46488;DHT22;32202;48.780;9.204;2023-02-28T15:47:17;12.70;39.40
46488;DHT22;32202;48.780;9.204;2023-02-28T15:52:16;13.10;39.40
46488;DHT22;32202;48.780;9.204;2023-02-28T15:54:43;13.30;39.10
46488;DHT22;32202;48.780;9.204;2023-02-28T15:57:20;12.60;39.40
46488;DHT22;32202;48.780;9.204;2023-02-28T15:59:52;12.20;40.00
46488;DHT22;32202;48.780;9.204;2023-02-28T16:02:32;12.20;40.60
46488;DHT22;32202;48.780;9.204;2023-02-28T16:07:34;11.80;41.20
46488;DHT22;32202;48.780;9.204;2023-02-28T16:10:00;11.40;41.60
46488;DHT22;32202;48.780;9.204;2023-02-28T16:12:27;11.00;42.30
46488;DHT22;32202;48.780;9.204;2023-02-28T16:14:54;10.80;42.60
46488;DHT22;32202;48.780;9.204;2023-02-28T16:17:21;10.50;43.10
46488;DHT22;32202;48.780;9.204;2023-02-28T16:19:47;10.30;43.80
46488;DHT22;32202;48.780;9.204;2023-02-28T16:22:12;10.00;44.00
46488;DHT22;32202;48.780;9.204;2023-02-28T16:24:38;9.80;44.50
46488;DHT22;32202;48.780;9.204;2023-02-28T16:27:05;9.30;45.20
46488;DHT22;32202;48.780;9.204;2023-02-28T16:29:32;8.90;46.40
46488;DHT22;32202;48.780;9.204;2023-02-28T16:32:00;8.70;46.90
46488;DHT22;32202;48.780;9.204;2023-02-28T16:34:25;8.50;47.40
46488;DHT22;32202;48.780;9.204;2023-02-28T16:36:51;8.30;47.90
46488;DHT22;32202;48.780;9.204;2023-02-28T16:39:16;8.10;48.20
46488;DHT22;32202;48.780;9.204;2023-02-28T16:41:43;7.90;48.40
46488;DHT22;32202;48.780;9.204;2023-02-28T16:44:12;7.70;48.90
46488;DHT22;32202;48.780;9.204;2023-02-28T16:46:38;7.60;49.50
46488;DHT22;32202;48.780;9.204;2023-02-28T16:49:04;7.50;50.00
46488;DHT22;32202;48.780;9.204;2023-02-28T16:51:29;7.30;49.80
46488;DHT22;32202;48.780;9.204;2023-02-28T16:53:55;7.20;50.20
46488;DHT22;32202;48.780;9.204;2023-02-28T16:56:21;7.00;50.80
46488;DHT22;32202;48.780;9.204;2023-02-28T16:58:47;7.00;51.10
46488;DHT22;32202;48.780;9.204;2023-02-28T17:01:13;6.90;51.50
46488;DHT22;32202;48.780;9.204;2023-02-28T17:03:39;6.80;51.80
46488;DHT22;32202;48.780;9.204;2023-02-28T17:06:12;6.70;51.90
46488;DHT22;32202;48.780;9.204;2023-02-28T17:08:41;6.50;52.10
46488;DHT22;32202;48.780;9.204;2023-02-28T17:11:06;6.40;52.60
46488;DHT22;32202;48.780;9.204;2023-02-28T17:13:31;6.30;52.60
46488;DHT22;32202;48.780;9.204;2023-02-28T17:15:59;6.30;53.00
46488;DHT22;32202;48.780;9.204;2023-02-28T17:18:25;6.20;53.20
46488;DHT22;32202;48.780;9.204;2023-02-28T17:20:51;6.10;53.50
46488;DHT22;32202;48.780;9.204;2023-02-28T17:23:17;6.10;53.80
46488;DHT22;32202;48.780;9.204;2023-02-28T17:25:43;6.00;53.90
46488;DHT22;32202;48.780;9.204;2023-02-28T17:28:18;5.90;54.20
46488;DHT22;32202;48.780;9.204;2023-02-28T17:30:44;5.70;54.40
46488;DHT22;32202;48.780;9.204;2023-02-28T17:33:12;5.70;54.80
46488;DHT22;32202;48.780;9.204;2023-02-28T17:35:37;5.60;54.90
46488;DHT22;32202;48.780;9.204;2023-02-28T17:38:03;5.50;55.30
46488;DHT22;32202;48.780;9.204;2023-02-28T17:40:28;5.50;55.60
46488;DHT22;32202;48.780;9.204;2023-02-28T17:42:54;5.40;55.60
46488;DHT22;32202;48.780;9.204;2023-02-28T17:45:22;5.30;55.80
46488;DHT22;32202;48.780;9.204;2023-02-28T17:47:48;5.30;56.20
46488;DHT22;32202;48.780;9.204;2023-02-28T17:50:16;5.30;56.20
46488;DHT22;32202;48.780;9.204;2023-02-28T17:52:42;5.30;56.10
46488;DHT22;32202;48.780;9.204;2023-02-28T17:55:08;5.20;56.40
46488;DHT22;32202;48.780;9.204;2023-02-28T17:57:33;5.10;56.60
46488;DHT22;32202;48.780;9.204;2023-02-28T17:59:59;5.10;57.10
46488;DHT22;32202;48.780;9.204;2023-02-28T18:02:24;5.00;56.90
46488;DHT22;32202;48.780;9.204;2023-02-28T18:04:51;5.00;57.20
46488;DHT22;32202;48.780;9.204;2023-02-28T18:07:17;5.00;57.60